Belton, South Carolina
Current Conditions -  °F | °C
As of 4:56 PM on Saturday 25 Oct 2014 (Local Time) from KAND Reporting Station
Clear Clear  
Wind Chill: 23°   Ceiling: Unl
Heat Index: 23°   Visibility: 10mi
Dew Point:   Wind: 8mph
Humidity: 39%   Direction: 210°SSW
Pressure: 29.97"   Gusts: NA
Location:  34.52°N, 82.49°W
Report Text: KAND 252056Z AUTO 21007KT 10SM CLR 23/08 A2997 RMK AO2 SLP144 T02280083 56016
Loading
Personal Weather Stations






























Interactive Weather Map
Tropical Storm Tracking
New forecast layout! Learn more

10-Day Weather Forecast

Advertisements
Track Severe Weather on mobile